createdAt,value
2022-10-30T00:01:22.707Z,17.74
2022-10-30T00:03:50.444Z,17.74
2022-10-30T00:06:19.450Z,17.74
2022-10-30T00:08:47.055Z,17.72
2022-10-30T00:11:15.245Z,17.72
2022-10-30T00:13:43.954Z,17.70
2022-10-30T00:16:11.857Z,17.68
2022-10-30T00:18:42.001Z,17.65
2022-10-30T00:21:12.042Z,17.68
2022-10-30T00:23:46.404Z,17.60
2022-10-30T00:26:14.070Z,17.54
2022-10-30T00:28:41.836Z,17.50
2022-10-30T00:31:09.473Z,17.45
2022-10-30T00:33:37.065Z,17.44
2022-10-30T00:36:04.985Z,17.41
2022-10-30T00:38:32.804Z,17.40
2022-10-30T00:41:01.881Z,17.43
2022-10-30T00:43:31.672Z,17.46
2022-10-30T00:46:03.105Z,17.46
2022-10-30T00:48:30.801Z,17.43
2022-10-30T00:50:59.894Z,17.43
2022-10-30T00:53:29.896Z,17.39
2022-10-30T00:56:00.903Z,17.36
2022-10-30T00:58:33.268Z,17.33
2022-10-30T01:01:04.056Z,17.29
2022-10-30T01:03:32.797Z,17.25
2022-10-30T01:06:04.016Z,17.24
2022-10-30T01:08:32.505Z,17.19
2022-10-30T01:11:02.962Z,17.20
2022-10-30T01:13:34.293Z,17.22
2022-10-30T01:16:17.416Z,17.30
2022-10-30T01:18:50.425Z,17.26
2022-10-30T01:21:39.770Z,17.33
2022-10-30T01:24:20.596Z,17.42
2022-10-30T01:26:57.375Z,17.46
2022-10-30T01:29:40.071Z,17.34
2022-10-30T01:32:20.114Z,17.29
2022-10-30T01:34:56.351Z,17.18
2022-10-30T01:37:33.536Z,17.05
2022-10-30T01:40:06.389Z,16.99
2022-10-30T01:42:49.603Z,16.93
2022-10-30T01:45:25.174Z,16.87
2022-10-30T01:48:05.328Z,16.83
2022-10-30T01:50:42.321Z,16.82
2022-10-30T01:53:22.007Z,16.92
2022-10-30T01:55:56.886Z,16.85
2022-10-30T01:58:33.023Z,16.91
2022-10-30T02:01:02.236Z,16.88
2022-10-30T02:03:30.150Z,16.89
2022-10-30T02:05:57.732Z,16.96
2022-10-30T02:08:25.594Z,16.91
2022-10-30T02:10:55.179Z,16.91
2022-10-30T02:13:22.856Z,16.90
2022-10-30T02:15:51.213Z,16.88
2022-10-30T02:18:20.132Z,16.83
2022-10-30T02:20:49.183Z,16.81
2022-10-30T02:23:19.027Z,16.80
2022-10-30T02:25:46.751Z,16.80
2022-10-30T02:28:14.324Z,16.80
2022-10-30T02:30:44.052Z,16.77
2022-10-30T02:33:13.405Z,16.71
2022-10-30T02:35:41.096Z,16.66
2022-10-30T02:38:10.061Z,16.63
2022-10-30T02:40:37.692Z,16.64
2022-10-30T02:43:05.300Z,16.64
2022-10-30T02:45:32.994Z,16.61
2022-10-30T02:48:01.819Z,16.61
2022-10-30T02:50:29.723Z,16.61
2022-10-30T02:52:59.793Z,16.61
2022-10-30T02:55:29.085Z,16.62
2022-10-30T02:57:56.686Z,16.60
2022-10-30T03:00:24.298Z,16.63
2022-10-30T03:02:56.157Z,16.64
2022-10-30T03:05:24.021Z,16.67
2022-10-30T03:07:51.619Z,16.65
2022-10-30T03:10:19.780Z,16.61
2022-10-30T03:12:48.745Z,16.56
2022-10-30T03:15:16.460Z,16.47
2022-10-30T03:17:45.332Z,16.50
2022-10-30T03:20:13.406Z,17.04
2022-10-30T03:22:40.992Z,17.14
2022-10-30T03:25:09.249Z,17.21
2022-10-30T03:27:36.866Z,17.05
2022-10-30T03:30:06.660Z,16.88
2022-10-30T03:32:34.279Z,16.76
2022-10-30T03:35:01.859Z,16.67
2022-10-30T03:37:29.444Z,16.62
2022-10-30T03:39:57.057Z,16.73
2022-10-30T03:42:24.735Z,17.02
2022-10-30T03:44:52.333Z,17.07
2022-10-30T03:47:21.335Z,17.20
2022-10-30T03:49:48.925Z,17.21
2022-10-30T03:52:16.505Z,17.06
2022-10-30T03:54:44.105Z,16.91
2022-10-30T03:57:11.723Z,16.86
2022-10-30T03:59:39.309Z,16.74
2022-10-30T04:02:07.024Z,16.57
2022-10-30T04:04:36.113Z,16.52
2022-10-30T04:07:03.688Z,16.45
2022-10-30T04:09:31.267Z,16.40
2022-10-30T04:11:58.892Z,16.36
2022-10-30T04:14:26.515Z,16.31
2022-10-30T04:16:54.096Z,16.28
2022-10-30T04:19:21.700Z,16.26
2022-10-30T04:21:51.272Z,16.19
2022-10-30T04:24:18.977Z,16.17
2022-10-30T04:26:46.941Z,16.17
2022-10-30T04:29:14.512Z,16.17
2022-10-30T04:31:42.143Z,16.15
2022-10-30T04:34:09.925Z,16.18
2022-10-30T04:36:37.504Z,16.26
2022-10-30T04:39:06.491Z,16.32
2022-10-30T04:41:34.466Z,16.39
2022-10-30T04:44:02.038Z,16.42
2022-10-30T04:46:32.817Z,16.55
2022-10-30T04:49:00.469Z,16.50
2022-10-30T04:51:28.068Z,16.56
2022-10-30T04:53:55.622Z,16.57
2022-10-30T04:56:24.577Z,16.45
2022-10-30T04:58:52.351Z,16.37
2022-10-30T05:01:20.438Z,16.30
2022-10-30T05:03:50.593Z,16.30
2022-10-30T05:06:23.991Z,16.25
2022-10-30T05:08:52.149Z,16.34
2022-10-30T05:11:20.219Z,16.36
2022-10-30T05:13:49.418Z,16.41
2022-10-30T05:16:17.083Z,16.47
2022-10-30T05:18:47.236Z,16.51
2022-10-30T05:21:14.967Z,16.73
2022-10-30T05:23:45.068Z,16.76
2022-10-30T05:26:12.833Z,16.66
2022-10-30T05:28:43.273Z,16.54
2022-10-30T05:31:14.518Z,16.49
2022-10-30T05:33:44.146Z,16.45
2022-10-30T05:36:14.241Z,16.40
2022-10-30T05:38:46.666Z,16.38
2022-10-30T05:41:14.277Z,16.30
2022-10-30T05:43:45.059Z,16.33
2022-10-30T05:46:14.106Z,16.37
2022-10-30T05:48:41.767Z,16.45
2022-10-30T05:51:09.467Z,16.47
2022-10-30T05:53:37.196Z,16.44
2022-10-30T05:56:05.273Z,16.48
2022-10-30T05:58:32.974Z,16.60
2022-10-30T06:01:03.379Z,16.58
2022-10-30T06:03:36.353Z,16.54
2022-10-30T06:06:13.181Z,16.47
2022-10-30T06:08:40.912Z,16.50
2022-10-30T06:11:08.728Z,16.67
2022-10-30T06:13:36.340Z,16.66
2022-10-30T06:16:04.074Z,16.56
2022-10-30T06:18:33.106Z,16.43
2022-10-30T06:21:00.709Z,16.36
2022-10-30T06:23:28.316Z,16.29
2022-10-30T06:26:01.174Z,16.25
2022-10-30T06:28:28.854Z,16.42
2022-10-30T06:30:56.680Z,16.73
2022-10-30T06:33:27.124Z,16.74
2022-10-30T06:35:57.856Z,16.67
2022-10-30T06:38:25.532Z,16.57
2022-10-30T06:40:56.087Z,16.43
2022-10-30T06:43:23.867Z,16.48
2022-10-30T06:45:51.535Z,16.68
2022-10-30T06:48:19.197Z,16.63
2022-10-30T06:50:46.763Z,16.58
2022-10-30T06:53:15.732Z,16.57
2022-10-30T06:55:43.315Z,16.56
2022-10-30T06:58:10.984Z,16.45
2022-10-30T07:00:38.625Z,16.36
2022-10-30T07:03:11.722Z,16.44
2022-10-30T07:05:39.326Z,16.54
2022-10-30T07:08:06.893Z,16.48
2022-10-30T07:10:36.030Z,16.41
2022-10-30T07:13:13.200Z,16.40
2022-10-30T07:18:13.289Z,16.83
2022-10-30T07:20:42.359Z,16.82
2022-10-30T07:23:10.013Z,17.00
2022-10-30T07:25:48.563Z,17.00
2022-10-30T07:28:16.252Z,16.96
2022-10-30T07:30:43.880Z,17.03
2022-10-30T07:33:11.583Z,17.04
2022-10-30T07:35:39.144Z,17.00
2022-10-30T07:38:09.719Z,16.99
2022-10-30T07:40:38.756Z,17.01
2022-10-30T07:43:06.854Z,16.96
2022-10-30T07:45:34.552Z,16.88
2022-10-30T07:48:04.052Z,16.90
2022-10-30T07:50:48.774Z,17.06
2022-10-30T07:53:16.446Z,17.10
2022-10-30T07:55:47.712Z,17.22
2022-10-30T07:58:27.123Z,17.30
2022-10-30T08:00:54.717Z,17.18
2022-10-30T08:03:22.308Z,17.03
2022-10-30T08:05:49.876Z,17.03
2022-10-30T08:08:17.453Z,16.99
2022-10-30T08:10:46.423Z,17.13
2022-10-30T08:13:14.931Z,17.13
2022-10-30T08:15:44.658Z,17.15
2022-10-30T08:18:12.281Z,17.14
2022-10-30T08:20:41.966Z,17.05
2022-10-30T08:23:09.954Z,17.02
2022-10-30T08:25:37.543Z,17.02
2022-10-30T08:28:08.368Z,17.33
2022-10-30T08:30:37.977Z,17.65
2022-10-30T08:33:15.316Z,17.60
2022-10-30T08:36:01.270Z,17.64
2022-10-30T08:38:29.997Z,17.64
2022-10-30T08:40:58.004Z,17.59
2022-10-30T08:43:26.999Z,17.47
2022-10-30T08:45:55.782Z,17.42
2022-10-30T08:48:23.386Z,17.41
2022-10-30T08:50:51.009Z,17.36
2022-10-30T08:53:20.453Z,17.39
2022-10-30T08:55:48.000Z,17.35
2022-10-30T08:58:15.603Z,17.42
2022-10-30T09:00:44.618Z,17.54
2022-10-30T09:03:12.372Z,17.57
2022-10-30T09:05:40.077Z,17.56
2022-10-30T09:08:07.659Z,17.65
2022-10-30T09:10:35.270Z,17.61
2022-10-30T09:13:03.198Z,17.63
2022-10-30T09:15:30.978Z,17.62
2022-10-30T09:18:02.178Z,17.69
2022-10-30T09:20:30.564Z,17.65
2022-10-30T09:22:58.696Z,17.63
2022-10-30T09:25:26.713Z,17.61
2022-10-30T09:27:54.397Z,17.63
2022-10-30T09:30:22.643Z,17.64
2022-10-30T09:32:56.265Z,17.64
2022-10-30T09:35:25.825Z,17.67
2022-10-30T09:37:53.442Z,17.68
2022-10-30T09:40:25.180Z,17.69
2022-10-30T09:42:53.466Z,17.69
2022-10-30T09:45:35.071Z,17.71
2022-10-30T09:48:16.508Z,17.72
2022-10-30T09:50:55.935Z,17.74
2022-10-30T09:53:30.366Z,17.75
2022-10-30T09:56:09.420Z,17.81
2022-10-30T09:58:50.238Z,17.84
2022-10-30T10:01:22.783Z,17.85
2022-10-30T10:04:00.739Z,17.86
2022-10-30T10:06:30.876Z,17.87
2022-10-30T10:09:04.865Z,17.87
2022-10-30T10:11:37.912Z,17.92
2022-10-30T10:14:10.370Z,17.94
2022-10-30T10:16:41.344Z,17.96
2022-10-30T10:19:16.565Z,17.96
2022-10-30T10:21:50.398Z,17.98
2022-10-30T10:24:23.975Z,17.99
2022-10-30T10:26:58.135Z,18.04
2022-10-30T10:29:34.920Z,18.11
2022-10-30T10:32:31.669Z,18.17
2022-10-30T10:35:37.082Z,18.18
2022-10-30T10:38:15.986Z,18.27
2022-10-30T10:40:56.098Z,18.30
2022-10-30T10:43:35.818Z,18.29
2022-10-30T10:46:30.160Z,18.29
2022-10-30T10:49:12.917Z,18.30
2022-10-30T10:51:43.829Z,18.29
2022-10-30T10:54:17.656Z,18.30
2022-10-30T10:56:49.442Z,18.32
2022-10-30T10:59:21.181Z,18.34
2022-10-30T11:01:57.419Z,18.35
2022-10-30T11:04:32.568Z,18.41
2022-10-30T11:07:06.206Z,18.44
2022-10-30T11:09:35.417Z,18.49
2022-10-30T11:12:03.062Z,18.54
2022-10-30T11:14:31.024Z,18.54
2022-10-30T11:17:11.938Z,18.57
2022-10-30T11:19:41.051Z,18.56
2022-10-30T11:22:28.511Z,18.59
2022-10-30T11:24:57.480Z,18.64
2022-10-30T11:27:30.762Z,18.68
2022-10-30T11:30:03.447Z,18.71
2022-10-30T11:32:36.996Z,18.73
2022-10-30T11:35:13.850Z,18.74
2022-10-30T11:37:44.052Z,18.76
2022-10-30T11:40:20.547Z,18.79
2022-10-30T11:42:51.364Z,18.77
2022-10-30T11:45:25.463Z,18.77
2022-10-30T11:47:56.086Z,18.78
2022-10-30T11:50:31.493Z,18.79
2022-10-30T11:53:02.876Z,18.83
2022-10-30T11:55:38.913Z,18.85
2022-10-30T11:58:08.452Z,18.84
2022-10-30T12:00:38.558Z,18.84
2022-10-30T12:03:26.357Z,18.85
2022-10-30T12:06:09.018Z,18.85
2022-10-30T12:08:36.786Z,18.85
2022-10-30T12:11:06.889Z,18.86
2022-10-30T12:13:39.850Z,18.87
2022-10-30T12:16:15.889Z,18.88
2022-10-30T12:18:57.364Z,18.99
2022-10-30T12:21:26.348Z,19.07
2022-10-30T12:23:57.610Z,19.07
2022-10-30T12:26:27.392Z,19.08
2022-10-30T12:29:02.223Z,19.16
2022-10-30T12:31:37.016Z,19.41
2022-10-30T12:34:16.637Z,19.67
2022-10-30T12:36:48.893Z,19.60
2022-10-30T12:39:24.856Z,19.69
2022-10-30T12:42:00.384Z,19.73
2022-10-30T12:44:31.689Z,19.64
2022-10-30T12:47:05.105Z,19.54
2022-10-30T12:49:41.485Z,19.49
2022-10-30T12:52:15.009Z,19.45
2022-10-30T12:54:51.020Z,19.43
2022-10-30T12:57:24.307Z,19.41
2022-10-30T13:00:00.931Z,19.43
2022-10-30T13:02:39.526Z,19.42
2022-10-30T13:05:25.916Z,19.43
2022-10-30T13:08:03.457Z,19.42
2022-10-30T13:10:35.611Z,19.42
2022-10-30T13:13:17.644Z,19.46
2022-10-30T13:15:49.538Z,19.52
2022-10-30T13:18:19.218Z,19.66
2022-10-30T13:21:00.072Z,19.84
2022-10-30T13:23:39.022Z,20.16
2022-10-30T13:26:14.420Z,20.27
2022-10-30T13:28:48.459Z,20.26
2022-10-30T13:31:24.440Z,20.38
2022-10-30T13:34:01.660Z,20.64
2022-10-30T13:36:37.657Z,20.97
2022-10-30T13:39:16.703Z,21.25
2022-10-30T13:41:58.433Z,21.62
2022-10-30T13:44:38.612Z,22.12
2022-10-30T13:47:15.875Z,22.56
2022-10-30T13:49:57.787Z,22.89
2022-10-30T13:52:29.171Z,23.10
2022-10-30T13:55:01.269Z,23.15
2022-10-30T13:57:36.420Z,23.17
2022-10-30T14:00:14.753Z,23.21
2022-10-30T14:03:27.058Z,23.27
2022-10-30T14:05:59.916Z,23.30
2022-10-30T14:08:37.552Z,23.31
2022-10-30T14:11:07.179Z,23.30
2022-10-30T14:13:47.362Z,23.18
2022-10-30T14:16:45.121Z,23.01
2022-10-30T14:19:13.836Z,22.84
2022-10-30T14:21:43.946Z,22.65
2022-10-30T14:24:17.985Z,22.50
2022-10-30T14:26:52.690Z,22.34
2022-10-30T14:29:48.919Z,22.17
2022-10-30T14:32:50.096Z,22.00
2022-10-30T14:35:49.110Z,21.87
2022-10-30T14:38:28.056Z,21.82
2022-10-30T14:41:15.008Z,21.73
2022-10-30T14:43:48.429Z,21.62
2022-10-30T14:46:24.602Z,21.52
2022-10-30T14:49:05.097Z,21.42
2022-10-30T14:51:41.159Z,21.34
2022-10-30T14:54:18.182Z,21.26
2022-10-30T14:56:48.407Z,21.19
2022-10-30T14:59:31.359Z,21.13
2022-10-30T15:02:21.250Z,21.08
2022-10-30T15:05:09.531Z,21.02
2022-10-30T15:07:44.945Z,20.98
2022-10-30T15:10:20.570Z,20.95
2022-10-30T15:13:13.661Z,20.92
2022-10-30T15:15:41.558Z,20.88
2022-10-30T15:18:14.341Z,20.86
2022-10-30T15:20:45.428Z,20.84
2022-10-30T15:23:19.983Z,20.81
2022-10-30T15:25:50.353Z,20.79
2022-10-30T15:28:22.302Z,20.77
2022-10-30T15:31:02.916Z,20.75
2022-10-30T15:33:32.420Z,20.72
2022-10-30T15:36:01.707Z,20.70
2022-10-30T15:38:29.485Z,20.65
2022-10-30T15:40:59.398Z,20.65
2022-10-30T15:43:31.605Z,20.62
2022-10-30T15:46:00.031Z,20.59
2022-10-30T15:48:29.828Z,20.56
2022-10-30T15:51:02.310Z,20.56
2022-10-30T15:53:38.171Z,20.53
2022-10-30T15:56:13.604Z,20.49
2022-10-30T15:58:50.100Z,20.46
2022-10-30T16:01:26.249Z,20.45
2022-10-30T16:03:55.094Z,20.42
2022-10-30T16:06:27.042Z,20.38
2022-10-30T16:08:54.720Z,20.34
2022-10-30T16:11:23.032Z,20.32
2022-10-30T16:13:51.184Z,20.30
2022-10-30T16:16:23.193Z,20.34
2022-10-30T16:18:51.642Z,20.36
2022-10-30T16:21:22.977Z,20.33
2022-10-30T16:23:53.957Z,20.28
2022-10-30T16:26:32.601Z,20.21
2022-10-30T16:29:03.465Z,20.23
2022-10-30T16:31:35.677Z,20.49
2022-10-30T16:34:04.668Z,20.58
2022-10-30T16:36:34.775Z,20.50
2022-10-30T16:39:04.545Z,20.38
2022-10-30T16:41:33.191Z,20.36
2022-10-30T16:44:14.591Z,20.35
2022-10-30T16:46:48.411Z,20.29
2022-10-30T16:49:19.090Z,20.23
2022-10-30T16:51:47.787Z,20.18
2022-10-30T16:54:26.932Z,20.08
2022-10-30T16:56:57.063Z,19.99
2022-10-30T16:59:30.312Z,19.92
2022-10-30T17:02:05.665Z,19.88
2022-10-30T17:04:34.750Z,19.85
2022-10-30T17:07:08.824Z,19.79
2022-10-30T17:09:39.496Z,19.76
2022-10-30T17:12:16.175Z,19.72
2022-10-30T17:14:52.976Z,19.69
2022-10-30T17:17:36.319Z,19.65
2022-10-30T17:20:07.898Z,19.62
2022-10-30T17:22:35.737Z,19.59
2022-10-30T17:25:16.524Z,19.57
2022-10-30T17:27:49.978Z,19.53
2022-10-30T17:30:34.068Z,19.50
2022-10-30T17:33:03.025Z,19.49
2022-10-30T17:35:31.279Z,19.47
2022-10-30T17:38:01.792Z,19.43
2022-10-30T17:40:32.226Z,19.41
2022-10-30T17:42:59.826Z,19.38
2022-10-30T17:45:27.368Z,19.37
2022-10-30T17:47:55.016Z,19.34
2022-10-30T17:50:22.608Z,19.32
2022-10-30T17:52:50.238Z,19.35
2022-10-30T17:55:30.288Z,19.35
2022-10-30T17:57:59.284Z,19.30
2022-10-30T18:00:27.191Z,19.24
2022-10-30T18:02:54.821Z,19.21
2022-10-30T18:05:26.565Z,19.20
2022-10-30T18:07:54.119Z,19.16
2022-10-30T18:10:21.761Z,19.12
2022-10-30T18:12:49.345Z,19.12
2022-10-30T18:15:29.276Z,19.15
2022-10-30T18:17:57.411Z,19.11
2022-10-30T18:20:25.692Z,19.05
2022-10-30T18:22:55.452Z,19.03
2022-10-30T18:25:25.942Z,19.03
2022-10-30T18:27:53.703Z,18.99
2022-10-30T18:30:23.313Z,19.03
2022-10-30T18:32:51.399Z,19.00
2022-10-30T18:35:28.251Z,18.94
2022-10-30T18:37:55.861Z,18.92
2022-10-30T18:40:23.561Z,18.88
2022-10-30T18:42:51.176Z,18.83
2022-10-30T18:45:23.938Z,18.80
2022-10-30T18:47:52.478Z,18.79
2022-10-30T18:50:22.319Z,18.79
2022-10-30T18:52:50.461Z,18.75
2022-10-30T18:55:21.583Z,18.74
2022-10-30T18:57:50.392Z,18.74
2022-10-30T19:00:19.996Z,18.72
2022-10-30T19:02:49.038Z,18.79
2022-10-30T19:05:22.410Z,18.76
2022-10-30T19:07:50.065Z,18.73
2022-10-30T19:10:17.772Z,18.75
2022-10-30T19:13:04.237Z,18.69
2022-10-30T19:15:34.829Z,18.61
2022-10-30T19:18:05.086Z,18.55
2022-10-30T19:20:58.605Z,18.52
2022-10-30T19:23:24.974Z,18.49
2022-10-30T19:25:53.433Z,18.45
2022-10-30T19:28:22.165Z,18.41
2022-10-30T19:30:51.169Z,18.38
2022-10-30T19:33:21.965Z,18.41
2022-10-30T19:35:54.843Z,18.40
2022-10-30T19:38:22.513Z,18.35
2022-10-30T19:40:50.338Z,18.38
2022-10-30T19:43:18.000Z,18.36
2022-10-30T19:45:47.235Z,18.32
2022-10-30T19:48:24.875Z,18.29
2022-10-30T19:50:59.061Z,18.27
2022-10-30T19:53:26.633Z,18.25
2022-10-30T19:55:54.383Z,18.24
2022-10-30T19:58:25.136Z,18.28
2022-10-30T20:00:54.450Z,18.25
2022-10-30T20:03:22.249Z,18.24
2022-10-30T20:05:50.672Z,18.18
2022-10-30T20:08:21.873Z,18.12
2022-10-30T20:10:51.386Z,18.13
2022-10-30T20:13:20.316Z,18.07
2022-10-30T20:15:47.979Z,18.03
2022-10-30T20:18:16.838Z,18.09
2022-10-30T20:20:49.555Z,18.13
2022-10-30T20:23:17.272Z,18.16
2022-10-30T20:25:47.075Z,18.09
2022-10-30T20:28:22.683Z,18.01
2022-10-30T20:30:50.906Z,17.93
2022-10-30T20:33:19.685Z,17.90
2022-10-30T20:35:48.112Z,17.87
2022-10-30T20:38:18.682Z,17.89
2022-10-30T20:40:49.297Z,17.87
2022-10-30T20:43:18.698Z,17.93
2022-10-30T20:45:46.860Z,17.96
2022-10-30T20:48:14.881Z,18.00
2022-10-30T20:50:46.411Z,17.90
2022-10-30T20:53:17.155Z,17.86
2022-10-30T20:55:45.246Z,17.80
2022-10-30T20:58:14.279Z,17.74
2022-10-30T21:00:42.373Z,17.71
2022-10-30T21:03:14.251Z,17.70
2022-10-30T21:05:44.635Z,17.74
2022-10-30T21:08:13.464Z,17.90
2022-10-30T21:10:41.731Z,17.90
2022-10-30T21:13:10.926Z,17.96
2022-10-30T21:15:41.181Z,18.01
2022-10-30T21:18:09.384Z,18.00
2022-10-30T21:20:38.152Z,17.98
2022-10-30T21:23:08.066Z,17.98
2022-10-30T21:25:35.877Z,17.96
2022-10-30T21:28:04.108Z,17.84
2022-10-30T21:30:31.884Z,17.76
2022-10-30T21:33:01.144Z,17.67
2022-10-30T21:35:29.133Z,17.73
2022-10-30T21:38:02.564Z,17.70
2022-10-30T21:40:30.612Z,17.65
2022-10-30T21:43:01.366Z,17.58
2022-10-30T21:45:32.118Z,17.49
2022-10-30T21:48:01.107Z,17.42
2022-10-30T21:50:32.146Z,17.46
2022-10-30T21:53:02.892Z,17.55
2022-10-30T21:55:30.573Z,17.61
2022-10-30T21:57:58.352Z,17.57
2022-10-30T22:00:26.294Z,17.53
2022-10-30T22:02:56.147Z,17.43
2022-10-30T22:05:27.552Z,17.36
2022-10-30T22:07:55.458Z,17.32
2022-10-30T22:10:23.037Z,17.28
2022-10-30T22:12:53.670Z,17.22
2022-10-30T22:15:21.258Z,17.18
2022-10-30T22:17:54.359Z,17.16
2022-10-30T22:20:25.085Z,17.19
2022-10-30T22:22:54.622Z,17.26
2022-10-30T22:25:22.182Z,17.41
2022-10-30T22:27:50.157Z,17.45
2022-10-30T22:30:18.394Z,17.43
2022-10-30T22:32:46.026Z,17.44
2022-10-30T22:35:13.691Z,17.33
2022-10-30T22:37:42.730Z,17.26
2022-10-30T22:40:11.346Z,17.18
2022-10-30T22:42:39.099Z,17.23
2022-10-30T22:45:07.956Z,17.26
2022-10-30T22:47:35.635Z,17.29
2022-10-30T22:50:03.337Z,17.34
2022-10-30T22:52:31.125Z,17.27
2022-10-30T22:55:00.111Z,17.24
2022-10-30T22:57:27.801Z,17.28
2022-10-30T22:59:55.514Z,17.21
2022-10-30T23:02:24.830Z,17.22
2022-10-30T23:04:53.839Z,17.11
2022-10-30T23:07:21.844Z,17.07
2022-10-30T23:09:49.844Z,17.09
2022-10-30T23:12:21.219Z,17.14
2022-10-30T23:14:50.975Z,17.22
2022-10-30T23:17:21.333Z,17.25
2022-10-30T23:19:48.968Z,17.18
2022-10-30T23:22:19.076Z,17.19
2022-10-30T23:24:48.843Z,17.20
2022-10-30T23:27:17.836Z,17.43
2022-10-30T23:29:45.663Z,17.53
2022-10-30T23:32:13.210Z,17.38
2022-10-30T23:34:43.175Z,17.33
2022-10-30T23:37:12.101Z,17.29
2022-10-30T23:39:41.949Z,17.27
2022-10-30T23:42:09.571Z,17.14
2022-10-30T23:44:38.608Z,17.05
2022-10-30T23:47:06.257Z,16.91
2022-10-30T23:49:34.385Z,16.94
2022-10-30T23:52:02.188Z,16.98
2022-10-30T23:54:29.784Z,16.96
2022-10-30T23:56:57.340Z,16.89
2022-10-30T23:59:25.083Z,16.78
